sensor_id;sensor_type;location;lat;lon;timestamp;pressure;altitude;pressure_sealevel;temperature;humidity
58967;BME280;44744;51.894;5.080;2023-06-04T00:00:09;102329.45;;;15.32;47.88
58967;BME280;44744;51.894;5.080;2023-06-04T00:01:09;102328.96;;;15.31;47.81
58967;BME280;44744;51.894;5.080;2023-06-04T00:02:10;102331.81;;;15.31;48.13
58967;BME280;44744;51.894;5.080;2023-06-04T00:03:11;102330.06;;;15.30;48.04
58967;BME280;44744;51.894;5.080;2023-06-04T00:04:11;102330.61;;;15.30;48.00
58967;BME280;44744;51.894;5.080;2023-06-04T00:05:11;102327.84;;;15.32;48.12
58967;BME280;44744;51.894;5.080;2023-06-04T00:06:12;102329.55;;;15.33;48.08
58967;BME280;44744;51.894;5.080;2023-06-04T00:07:12;102331.70;;;15.33;48.10
58967;BME280;44744;51.894;5.080;2023-06-04T00:08:12;102327.36;;;15.31;47.98
58967;BME280;44744;51.894;5.080;2023-06-04T00:09:13;102326.89;;;15.30;48.10
58967;BME280;44744;51.894;5.080;2023-06-04T00:10:13;102325.77;;;15.31;47.94
58967;BME280;44744;51.894;5.080;2023-06-04T00:11:13;102323.56;;;15.32;48.21
58967;BME280;44744;51.894;5.080;2023-06-04T00:12:14;102323.77;;;15.32;48.11
58967;BME280;44744;51.894;5.080;2023-06-04T00:13:17;102324.49;;;15.32;47.94
58967;BME280;44744;51.894;5.080;2023-06-04T00:14:17;102322.95;;;15.30;47.95
58967;BME280;44744;51.894;5.080;2023-06-04T00:15:18;102326.34;;;15.30;48.17
58967;BME280;44744;51.894;5.080;2023-06-04T00:16:19;102328.30;;;15.27;48.36
58967;BME280;44744;51.894;5.080;2023-06-04T00:17:19;102325.11;;;15.23;48.17
58967;BME280;44744;51.894;5.080;2023-06-04T00:18:20;102322.31;;;15.22;48.33
58967;BME280;44744;51.894;5.080;2023-06-04T00:19:20;102325.68;;;15.23;48.28
58967;BME280;44744;51.894;5.080;2023-06-04T00:20:22;102326.66;;;15.20;48.34
58967;BME280;44744;51.894;5.080;2023-06-04T00:21:23;102326.36;;;15.20;48.42
58967;BME280;44744;51.894;5.080;2023-06-04T00:22:24;102326.38;;;15.19;48.35
58967;BME280;44744;51.894;5.080;2023-06-04T00:23:24;102330.22;;;15.17;48.33
58967;BME280;44744;51.894;5.080;2023-06-04T00:24:25;102328.33;;;15.16;48.35
58967;BME280;44744;51.894;5.080;2023-06-04T00:25:26;102328.20;;;15.15;48.45
58967;BME280;44744;51.894;5.080;2023-06-04T00:26:27;102326.98;;;15.14;48.44
58967;BME280;44744;51.894;5.080;2023-06-04T00:27:27;102327.88;;;15.14;48.63
58967;BME280;44744;51.894;5.080;2023-06-04T00:28:27;102326.77;;;15.15;48.56
58967;BME280;44744;51.894;5.080;2023-06-04T00:29:28;102325.19;;;15.14;48.44
58967;BME280;44744;51.894;5.080;2023-06-04T00:30:28;102327.34;;;15.14;48.37
58967;BME280;44744;51.894;5.080;2023-06-04T00:31:31;102327.88;;;15.14;48.72
58967;BME280;44744;51.894;5.080;2023-06-04T00:32:32;102324.42;;;15.15;48.60
58967;BME280;44744;51.894;5.080;2023-06-04T00:33:32;102328.65;;;15.13;48.68
58967;BME280;44744;51.894;5.080;2023-06-04T00:34:32;102330.40;;;15.10;48.74
58967;BME280;44744;51.894;5.080;2023-06-04T00:35:33;102326.45;;;15.07;48.84
58967;BME280;44744;51.894;5.080;2023-06-04T00:36:33;102324.42;;;15.05;48.82
58967;BME280;44744;51.894;5.080;2023-06-04T00:37:33;102321.52;;;15.02;48.87
58967;BME280;44744;51.894;5.080;2023-06-04T00:38:34;102321.88;;;15.03;48.69
58967;BME280;44744;51.894;5.080;2023-06-04T00:39:35;102323.03;;;15.05;48.74
58967;BME280;44744;51.894;5.080;2023-06-04T00:40:35;102323.69;;;15.06;48.81
58967;BME280;44744;51.894;5.080;2023-06-04T00:41:35;102324.58;;;15.06;48.73
58967;BME280;44744;51.894;5.080;2023-06-04T00:42:36;102325.58;;;15.07;48.71
58967;BME280;44744;51.894;5.080;2023-06-04T00:43:36;102326.61;;;15.08;48.82
58967;BME280;44744;51.894;5.080;2023-06-04T00:44:36;102325.89;;;15.07;48.82
58967;BME280;44744;51.894;5.080;2023-06-04T00:45:36;102323.60;;;15.07;48.78
58967;BME280;44744;51.894;5.080;2023-06-04T00:46:37;102326.10;;;15.07;48.79
58967;BME280;44744;51.894;5.080;2023-06-04T00:47:38;102327.02;;;15.07;48.70
58967;BME280;44744;51.894;5.080;2023-06-04T00:48:38;102325.44;;;15.06;48.77
58967;BME280;44744;51.894;5.080;2023-06-04T00:49:39;102325.45;;;15.06;48.97
58967;BME280;44744;51.894;5.080;2023-06-04T00:50:39;102330.15;;;15.05;49.03
58967;BME280;44744;51.894;5.080;2023-06-04T00:51:41;102329.31;;;15.03;49.01
58967;BME280;44744;51.894;5.080;2023-06-04T00:52:41;102325.39;;;15.00;49.03
58967;BME280;44744;51.894;5.080;2023-06-04T00:53:41;102332.46;;;14.97;49.09
58967;BME280;44744;51.894;5.080;2023-06-04T00:54:42;102327.02;;;14.96;49.05
58967;BME280;44744;51.894;5.080;2023-06-04T00:55:43;102325.08;;;14.95;49.11
58967;BME280;44744;51.894;5.080;2023-06-04T00:56:43;102329.66;;;14.93;49.26
58967;BME280;44744;51.894;5.080;2023-06-04T00:57:44;102326.83;;;14.89;49.15
58967;BME280;44744;51.894;5.080;2023-06-04T00:58:46;102326.59;;;14.86;49.30
58967;BME280;44744;51.894;5.080;2023-06-04T00:59:46;102324.86;;;14.85;49.46
58967;BME280;44744;51.894;5.080;2023-06-04T01:00:58;102327.63;;;14.83;49.33
58967;BME280;44744;51.894;5.080;2023-06-04T01:03:05;102325.98;;;14.84;49.37
58967;BME280;44744;51.894;5.080;2023-06-04T01:04:53;102322.77;;;14.84;49.50
58967;BME280;44744;51.894;5.080;2023-06-04T01:05:41;102322.40;;;14.85;49.30
58967;BME280;44744;51.894;5.080;2023-06-04T01:06:45;102323.30;;;14.84;49.60
58967;BME280;44744;51.894;5.080;2023-06-04T01:07:48;102323.87;;;14.80;49.55
58967;BME280;44744;51.894;5.080;2023-06-04T01:08:49;102326.77;;;14.79;49.84
58967;BME280;44744;51.894;5.080;2023-06-04T01:09:50;102325.45;;;14.73;49.46
58967;BME280;44744;51.894;5.080;2023-06-04T01:10:55;102329.32;;;14.71;49.85
58967;BME280;44744;51.894;5.080;2023-06-04T01:11:56;102327.05;;;14.70;49.76
58967;BME280;44744;51.894;5.080;2023-06-04T01:12:56;102329.01;;;14.70;49.70
58967;BME280;44744;51.894;5.080;2023-06-04T01:13:57;102326.72;;;14.69;49.89
58967;BME280;44744;51.894;5.080;2023-06-04T01:14:58;102327.44;;;14.65;49.73
58967;BME280;44744;51.894;5.080;2023-06-04T01:15:59;102327.92;;;14.62;50.03
58967;BME280;44744;51.894;5.080;2023-06-04T01:17:04;102326.98;;;14.56;49.99
58967;BME280;44744;51.894;5.080;2023-06-04T01:18:07;102328.88;;;14.50;49.90
58967;BME280;44744;51.894;5.080;2023-06-04T01:21:01;102326.83;;;14.44;50.32
58967;BME280;44744;51.894;5.080;2023-06-04T01:22:15;102326.20;;;14.42;50.24
58967;BME280;44744;51.894;5.080;2023-06-04T01:24:34;102328.27;;;14.44;50.35
58967;BME280;44744;51.894;5.080;2023-06-04T01:25:40;102327.92;;;14.44;50.50
58967;BME280;44744;51.894;5.080;2023-06-04T01:26:41;102327.29;;;14.42;50.32
58967;BME280;44744;51.894;5.080;2023-06-04T01:27:50;102327.41;;;14.39;50.52
58967;BME280;44744;51.894;5.080;2023-06-04T01:28:52;102323.79;;;14.37;50.55
58967;BME280;44744;51.894;5.080;2023-06-04T01:29:53;102326.15;;;14.36;50.39
58967;BME280;44744;51.894;5.080;2023-06-04T01:30:54;102326.30;;;14.37;50.52
58967;BME280;44744;51.894;5.080;2023-06-04T01:31:56;102325.12;;;14.35;50.56
58967;BME280;44744;51.894;5.080;2023-06-04T01:32:57;102329.05;;;14.34;50.46
58967;BME280;44744;51.894;5.080;2023-06-04T01:33:57;102329.85;;;14.33;50.72
58967;BME280;44744;51.894;5.080;2023-06-04T01:34:58;102328.59;;;14.29;50.51
58967;BME280;44744;51.894;5.080;2023-06-04T01:35:59;102328.11;;;14.28;50.65
58967;BME280;44744;51.894;5.080;2023-06-04T01:37:00;102328.52;;;14.27;50.62
58967;BME280;44744;51.894;5.080;2023-06-04T01:38:00;102327.64;;;14.23;50.72
58967;BME280;44744;51.894;5.080;2023-06-04T01:39:01;102329.77;;;14.19;50.62
58967;BME280;44744;51.894;5.080;2023-06-04T01:40:01;102327.52;;;14.18;50.92
58967;BME280;44744;51.894;5.080;2023-06-04T01:41:02;102326.23;;;14.15;50.89
58967;BME280;44744;51.894;5.080;2023-06-04T01:42:02;102324.96;;;14.15;51.16
58967;BME280;44744;51.894;5.080;2023-06-04T01:43:04;102325.36;;;14.15;50.99
58967;BME280;44744;51.894;5.080;2023-06-04T01:44:04;102325.48;;;14.12;51.16
58967;BME280;44744;51.894;5.080;2023-06-04T01:45:05;102327.12;;;14.07;50.93
58967;BME280;44744;51.894;5.080;2023-06-04T01:46:05;102322.48;;;14.08;51.18
58967;BME280;44744;51.894;5.080;2023-06-04T01:47:06;102322.88;;;14.11;50.96
58967;BME280;44744;51.894;5.080;2023-06-04T01:48:06;102323.31;;;14.12;50.91
58967;BME280;44744;51.894;5.080;2023-06-04T01:49:06;102323.76;;;14.15;51.04
58967;BME280;44744;51.894;5.080;2023-06-04T01:50:07;102319.25;;;14.16;50.87
58967;BME280;44744;51.894;5.080;2023-06-04T01:51:07;102321.55;;;14.16;50.92
58967;BME280;44744;51.894;5.080;2023-06-04T01:52:08;102325.27;;;14.16;51.01
58967;BME280;44744;51.894;5.080;2023-06-04T01:53:09;102326.36;;;14.16;50.91
58967;BME280;44744;51.894;5.080;2023-06-04T01:54:09;102326.69;;;14.16;50.89
58967;BME280;44744;51.894;5.080;2023-06-04T01:55:13;102326.54;;;14.16;50.82
58967;BME280;44744;51.894;5.080;2023-06-04T01:56:13;102325.29;;;14.16;50.85
58967;BME280;44744;51.894;5.080;2023-06-04T01:57:14;102324.18;;;14.17;50.88
58967;BME280;44744;51.894;5.080;2023-06-04T01:58:15;102326.50;;;14.17;50.58
58967;BME280;44744;51.894;5.080;2023-06-04T01:59:16;102321.58;;;14.16;50.63
58967;BME280;44744;51.894;5.080;2023-06-04T02:00:18;102326.06;;;14.14;50.81
58967;BME280;44744;51.894;5.080;2023-06-04T02:01:18;102324.53;;;14.13;50.59
58967;BME280;44744;51.894;5.080;2023-06-04T02:02:18;102323.91;;;14.11;50.71
58967;BME280;44744;51.894;5.080;2023-06-04T02:03:19;102326.09;;;14.10;50.64
58967;BME280;44744;51.894;5.080;2023-06-04T02:04:19;102327.96;;;14.08;50.65
58967;BME280;44744;51.894;5.080;2023-06-04T02:05:19;102326.27;;;14.06;50.68
58967;BME280;44744;51.894;5.080;2023-06-04T02:06:20;102328.02;;;14.03;50.72
58967;BME280;44744;51.894;5.080;2023-06-04T02:07:21;102329.63;;;13.99;50.94
58967;BME280;44744;51.894;5.080;2023-06-04T02:08:22;102325.48;;;13.96;51.03
58967;BME280;44744;51.894;5.080;2023-06-04T02:09:22;102329.86;;;13.90;50.99
58967;BME280;44744;51.894;5.080;2023-06-04T02:10:22;102330.15;;;13.88;50.96
58967;BME280;44744;51.894;5.080;2023-06-04T02:11:23;102333.06;;;13.86;51.14
58967;BME280;44744;51.894;5.080;2023-06-04T02:12:23;102330.83;;;13.84;50.98
58967;BME280;44744;51.894;5.080;2023-06-04T02:13:23;102329.34;;;13.82;51.12
58967;BME280;44744;51.894;5.080;2023-06-04T02:14:24;102330.65;;;13.80;51.15
58967;BME280;44744;51.894;5.080;2023-06-04T02:15:25;102331.63;;;13.78;51.18
58967;BME280;44744;51.894;5.080;2023-06-04T02:16:26;102329.11;;;13.75;51.13
58967;BME280;44744;51.894;5.080;2023-06-04T02:17:27;102328.33;;;13.68;51.28
58967;BME280;44744;51.894;5.080;2023-06-04T02:18:28;102329.48;;;13.66;51.35
58967;BME280;44744;51.894;5.080;2023-06-04T02:19:28;102331.02;;;13.64;51.28
58967;BME280;44744;51.894;5.080;2023-06-04T02:20:29;102325.63;;;13.62;51.28
58967;BME280;44744;51.894;5.080;2023-06-04T02:21:29;102328.54;;;13.60;51.51
58967;BME280;44744;51.894;5.080;2023-06-04T02:22:30;102323.70;;;13.57;51.47
58967;BME280;44744;51.894;5.080;2023-06-04T02:23:30;102323.73;;;13.56;51.48
58967;BME280;44744;51.894;5.080;2023-06-04T02:24:31;102319.72;;;13.55;51.64
58967;BME280;44744;51.894;5.080;2023-06-04T02:25:31;102320.92;;;13.51;51.62
58967;BME280;44744;51.894;5.080;2023-06-04T02:26:31;102321.86;;;13.50;51.51
58967;BME280;44744;51.894;5.080;2023-06-04T02:27:32;102321.97;;;13.47;51.76
58967;BME280;44744;51.894;5.080;2023-06-04T02:28:32;102323.66;;;13.46;51.70
58967;BME280;44744;51.894;5.080;2023-06-04T02:29:32;102323.22;;;13.43;51.79
58967;BME280;44744;51.894;5.080;2023-06-04T02:30:33;102326.52;;;13.41;51.79
58967;BME280;44744;51.894;5.080;2023-06-04T02:31:33;102324.58;;;13.41;51.86
58967;BME280;44744;51.894;5.080;2023-06-04T02:32:33;102331.53;;;13.40;51.88
58967;BME280;44744;51.894;5.080;2023-06-04T02:33:33;102328.92;;;13.39;51.85
58967;BME280;44744;51.894;5.080;2023-06-04T02:34:34;102327.45;;;13.36;51.98
58967;BME280;44744;51.894;5.080;2023-06-04T02:35:35;102327.86;;;13.34;51.98
58967;BME280;44744;51.894;5.080;2023-06-04T02:36:35;102326.73;;;13.31;51.96
58967;BME280;44744;51.894;5.080;2023-06-04T02:37:36;102328.06;;;13.29;51.97
58967;BME280;44744;51.894;5.080;2023-06-04T02:38:36;102325.45;;;13.28;52.07
58967;BME280;44744;51.894;5.080;2023-06-04T02:39:36;102331.14;;;13.28;51.94
58967;BME280;44744;51.894;5.080;2023-06-04T02:40:38;102330.23;;;13.28;51.89
58967;BME280;44744;51.894;5.080;2023-06-04T02:41:40;102329.52;;;13.28;51.97
58967;BME280;44744;51.894;5.080;2023-06-04T02:42:40;102330.19;;;13.29;51.96
58967;BME280;44744;51.894;5.080;2023-06-04T02:43:40;102330.17;;;13.29;52.15
58967;BME280;44744;51.894;5.080;2023-06-04T02:44:41;102329.34;;;13.28;52.20
58967;BME280;44744;51.894;5.080;2023-06-04T02:45:42;102330.80;;;13.27;51.90
58967;BME280;44744;51.894;5.080;2023-06-04T02:46:43;102333.95;;;13.24;52.10
58967;BME280;44744;51.894;5.080;2023-06-04T02:47:44;102332.36;;;13.20;52.32
58967;BME280;44744;51.894;5.080;2023-06-04T02:48:44;102330.90;;;13.17;52.15
58967;BME280;44744;51.894;5.080;2023-06-04T02:49:45;102333.73;;;13.17;52.21
58967;BME280;44744;51.894;5.080;2023-06-04T02:50:45;102330.73;;;13.17;52.18
58967;BME280;44744;51.894;5.080;2023-06-04T02:51:45;102328.63;;;13.15;52.41
58967;BME280;44744;51.894;5.080;2023-06-04T02:52:46;102328.86;;;13.14;52.29
58967;BME280;44744;51.894;5.080;2023-06-04T02:53:47;102328.81;;;13.15;52.38
58967;BME280;44744;51.894;5.080;2023-06-04T02:54:47;102325.04;;;13.17;52.43
58967;BME280;44744;51.894;5.080;2023-06-04T02:55:47;102324.67;;;13.17;52.44
58967;BME280;44744;51.894;5.080;2023-06-04T02:56:48;102327.86;;;13.17;52.35
58967;BME280;44744;51.894;5.080;2023-06-04T02:57:48;102326.77;;;13.18;52.35
58967;BME280;44744;51.894;5.080;2023-06-04T02:58:52;102324.31;;;13.17;52.29
58967;BME280;44744;51.894;5.080;2023-06-04T02:59:53;102326.13;;;13.16;52.24
58967;BME280;44744;51.894;5.080;2023-06-04T03:00:53;102322.80;;;13.14;52.39
58967;BME280;44744;51.894;5.080;2023-06-04T03:01:54;102324.41;;;13.14;52.40
58967;BME280;44744;51.894;5.080;2023-06-04T03:02:54;102324.92;;;13.15;52.33
58967;BME280;44744;51.894;5.080;2023-06-04T03:03:55;102325.17;;;13.13;52.23
58967;BME280;44744;51.894;5.080;2023-06-04T03:04:56;102326.84;;;13.12;52.41
58967;BME280;44744;51.894;5.080;2023-06-04T03:05:56;102325.81;;;13.11;52.31
58967;BME280;44744;51.894;5.080;2023-06-04T03:06:57;102326.84;;;13.12;52.41
58967;BME280;44744;51.894;5.080;2023-06-04T03:07:57;102330.56;;;13.12;52.51
58967;BME280;44744;51.894;5.080;2023-06-04T03:08:57;102331.33;;;13.11;52.49
58967;BME280;44744;51.894;5.080;2023-06-04T03:09:58;102333.67;;;13.10;52.45
58967;BME280;44744;51.894;5.080;2023-06-04T03:10:59;102333.98;;;13.11;52.33
58967;BME280;44744;51.894;5.080;2023-06-04T03:12:01;102331.68;;;13.11;52.48
58967;BME280;44744;51.894;5.080;2023-06-04T03:13:03;102331.92;;;13.09;52.49
58967;BME280;44744;51.894;5.080;2023-06-04T03:14:03;102330.39;;;13.07;52.50
58967;BME280;44744;51.894;5.080;2023-06-04T03:15:04;102326.71;;;13.06;52.40
58967;BME280;44744;51.894;5.080;2023-06-04T03:16:06;102327.91;;;13.07;52.53
58967;BME280;44744;51.894;5.080;2023-06-04T03:17:06;102325.20;;;13.09;52.53
58967;BME280;44744;51.894;5.080;2023-06-04T03:18:06;102325.85;;;13.10;52.51
58967;BME280;44744;51.894;5.080;2023-06-04T03:19:07;102325.84;;;13.10;52.50
58967;BME280;44744;51.894;5.080;2023-06-04T03:20:07;102326.67;;;13.11;52.52
58967;BME280;44744;51.894;5.080;2023-06-04T03:21:08;102326.79;;;13.09;52.47
58967;BME280;44744;51.894;5.080;2023-06-04T03:22:12;102326.83;;;13.08;52.43
58967;BME280;44744;51.894;5.080;2023-06-04T03:23:12;102325.89;;;13.09;52.63
58967;BME280;44744;51.894;5.080;2023-06-04T03:24:12;102326.25;;;13.09;52.64
58967;BME280;44744;51.894;5.080;2023-06-04T03:25:13;102327.27;;;13.10;52.36
58967;BME280;44744;51.894;5.080;2023-06-04T03:26:13;102328.01;;;13.09;52.37
58967;BME280;44744;51.894;5.080;2023-06-04T03:27:14;102330.17;;;13.09;52.46
58967;BME280;44744;51.894;5.080;2023-06-04T03:28:14;102327.86;;;13.09;52.35
58967;BME280;44744;51.894;5.080;2023-06-04T03:29:14;102326.27;;;13.09;52.48
58967;BME280;44744;51.894;5.080;2023-06-04T03:30:14;102324.55;;;13.07;52.34
58967;BME280;44744;51.894;5.080;2023-06-04T03:31:15;102324.73;;;13.07;52.37
58967;BME280;44744;51.894;5.080;2023-06-04T03:32:15;102320.01;;;13.06;52.42
58967;BME280;44744;51.894;5.080;2023-06-04T03:33:15;102324.37;;;13.07;52.41
58967;BME280;44744;51.894;5.080;2023-06-04T03:34:16;102326.16;;;13.07;52.34
58967;BME280;44744;51.894;5.080;2023-06-04T03:35:16;102322.80;;;13.07;52.32
58967;BME280;44744;51.894;5.080;2023-06-04T03:36:16;102322.30;;;13.06;52.28
58967;BME280;44744;51.894;5.080;2023-06-04T03:37:17;102322.20;;;13.04;52.35
58967;BME280;44744;51.894;5.080;2023-06-04T03:38:20;102323.60;;;13.04;52.42
58967;BME280;44744;51.894;5.080;2023-06-04T03:39:21;102325.97;;;13.03;52.32
58967;BME280;44744;51.894;5.080;2023-06-04T03:40:21;102326.41;;;13.01;52.18
58967;BME280;44744;51.894;5.080;2023-06-04T03:41:22;102323.48;;;12.98;52.26
58967;BME280;44744;51.894;5.080;2023-06-04T03:42:22;102325.40;;;12.95;52.23
58967;BME280;44744;51.894;5.080;2023-06-04T03:43:22;102325.75;;;12.91;52.23
58967;BME280;44744;51.894;5.080;2023-06-04T03:44:23;102328.41;;;12.87;52.30
58967;BME280;44744;51.894;5.080;2023-06-04T03:45:23;102326.36;;;12.85;52.14
58967;BME280;44744;51.894;5.080;2023-06-04T03:46:24;102327.66;;;12.83;52.33
58967;BME280;44744;51.894;5.080;2023-06-04T03:47:24;102330.73;;;12.82;52.33
58967;BME280;44744;51.894;5.080;2023-06-04T03:48:24;102330.89;;;12.78;52.37
58967;BME280;44744;51.894;5.080;2023-06-04T03:49:25;102326.98;;;12.74;52.43
58967;BME280;44744;51.894;5.080;2023-06-04T03:50:25;102330.39;;;12.73;52.53
58967;BME280;44744;51.894;5.080;2023-06-04T03:51:26;102330.39;;;12.68;52.50
58967;BME280;44744;51.894;5.080;2023-06-04T03:52:26;102330.17;;;12.65;52.64
58967;BME280;44744;51.894;5.080;2023-06-04T03:53:26;102329.63;;;12.60;52.68
58967;BME280;44744;51.894;5.080;2023-06-04T03:54:27;102329.50;;;12.59;52.69
58967;BME280;44744;51.894;5.080;2023-06-04T03:55:27;102329.74;;;12.58;52.71
58967;BME280;44744;51.894;5.080;2023-06-04T03:56:27;102331.60;;;12.56;52.69
58967;BME280;44744;51.894;5.080;2023-06-04T03:57:28;102330.27;;;12.53;52.57
58967;BME280;44744;51.894;5.080;2023-06-04T03:58:28;102327.29;;;12.53;52.89
58967;BME280;44744;51.894;5.080;2023-06-04T03:59:28;102331.73;;;12.52;52.94
58967;BME280;44744;51.894;5.080;2023-06-04T04:00:29;102330.77;;;12.50;52.81
58967;BME280;44744;51.894;5.080;2023-06-04T04:01:29;102333.13;;;12.49;52.94
58967;BME280;44744;51.894;5.080;2023-06-04T04:02:30;102332.98;;;12.48;52.94
58967;BME280;44744;51.894;5.080;2023-06-04T04:03:30;102335.30;;;12.48;52.92
58967;BME280;44744;51.894;5.080;2023-06-04T04:04:31;102334.98;;;12.46;52.91
58967;BME280;44744;51.894;5.080;2023-06-04T04:05:31;102333.24;;;12.45;52.99
58967;BME280;44744;51.894;5.080;2023-06-04T04:06:33;102336.99;;;12.45;53.21
58967;BME280;44744;51.894;5.080;2023-06-04T04:07:33;102334.64;;;12.41;53.24
58967;BME280;44744;51.894;5.080;2023-06-04T04:08:33;102334.06;;;12.39;53.15
58967;BME280;44744;51.894;5.080;2023-06-04T04:09:34;102334.24;;;12.38;53.21
58967;BME280;44744;51.894;5.080;2023-06-04T04:10:34;102330.36;;;12.38;53.23
58967;BME280;44744;51.894;5.080;2023-06-04T04:11:34;102330.60;;;12.36;53.16
58967;BME280;44744;51.894;5.080;2023-06-04T04:12:35;102330.80;;;12.35;53.22
58967;BME280;44744;51.894;5.080;2023-06-04T04:13:35;102330.50;;;12.34;53.34
58967;BME280;44744;51.894;5.080;2023-06-04T04:14:35;102332.43;;;12.35;53.34
58967;BME280;44744;51.894;5.080;2023-06-04T04:15:36;102334.33;;;12.36;53.48
58967;BME280;44744;51.894;5.080;2023-06-04T04:16:38;102335.02;;;12.36;53.56
58967;BME280;44744;51.894;5.080;2023-06-04T04:17:39;102336.52;;;12.34;53.52
58967;BME280;44744;51.894;5.080;2023-06-04T04:18:41;102340.90;;;12.31;53.41
58967;BME280;44744;51.894;5.080;2023-06-04T04:19:42;102339.88;;;12.30;53.53
58967;BME280;44744;51.894;5.080;2023-06-04T04:20:42;102340.96;;;12.29;53.59
58967;BME280;44744;51.894;5.080;2023-06-04T04:21:45;102341.83;;;12.30;53.57
58967;BME280;44744;51.894;5.080;2023-06-04T04:22:45;102341.09;;;12.31;53.69
58967;BME280;44744;51.894;5.080;2023-06-04T04:23:45;102344.05;;;12.32;53.59
58967;BME280;44744;51.894;5.080;2023-06-04T04:24:46;102347.05;;;12.33;53.70
58967;BME280;44744;51.894;5.080;2023-06-04T04:25:46;102344.24;;;12.32;53.64
58967;BME280;44744;51.894;5.080;2023-06-04T04:26:46;102345.96;;;12.33;53.64
58967;BME280;44744;51.894;5.080;2023-06-04T04:27:47;102346.32;;;12.34;53.77
58967;BME280;44744;51.894;5.080;2023-06-04T04:28:47;102348.27;;;12.33;53.67
58967;BME280;44744;51.894;5.080;2023-06-04T04:29:48;102344.72;;;12.33;53.68
58967;BME280;44744;51.894;5.080;2023-06-04T04:30:48;102340.96;;;12.34;53.73
58967;BME280;44744;51.894;5.080;2023-06-04T04:31:50;102344.86;;;12.34;53.80
58967;BME280;44744;51.894;5.080;2023-06-04T04:32:51;102344.29;;;12.35;53.76
58967;BME280;44744;51.894;5.080;2023-06-04T04:33:52;102341.27;;;12.35;53.74
58967;BME280;44744;51.894;5.080;2023-06-04T04:34:54;102344.65;;;12.35;53.88
58967;BME280;44744;51.894;5.080;2023-06-04T04:35:56;102345.46;;;12.32;53.92
58967;BME280;44744;51.894;5.080;2023-06-04T04:36:57;102347.99;;;12.31;53.95
58967;BME280;44744;51.894;5.080;2023-06-04T04:38:01;102347.52;;;12.30;54.22
58967;BME280;44744;51.894;5.080;2023-06-04T04:39:01;102347.48;;;12.26;54.35
58967;BME280;44744;51.894;5.080;2023-06-04T04:40:06;102344.36;;;12.24;54.51
58967;BME280;44744;51.894;5.080;2023-06-04T04:41:07;102346.88;;;12.19;54.63
58967;BME280;44744;51.894;5.080;2023-06-04T04:42:10;102346.16;;;12.14;54.76
58967;BME280;44744;51.894;5.080;2023-06-04T04:43:10;102347.69;;;12.11;54.74
58967;BME280;44744;51.894;5.080;2023-06-04T04:44:16;102347.00;;;12.10;55.03
58967;BME280;44744;51.894;5.080;2023-06-04T04:45:17;102347.35;;;12.10;55.16
58967;BME280;44744;51.894;5.080;2023-06-04T04:46:17;102348.30;;;12.09;55.30
58967;BME280;44744;51.894;5.080;2023-06-04T04:47:17;102344.48;;;12.07;55.74
58967;BME280;44744;51.894;5.080;2023-06-04T04:48:18;102345.79;;;12.00;55.91
58967;BME280;44744;51.894;5.080;2023-06-04T04:49:18;102343.20;;;11.93;55.90
58967;BME280;44744;51.894;5.080;2023-06-04T04:50:19;102341.17;;;11.89;55.84
58967;BME280;44744;51.894;5.080;2023-06-04T04:51:19;102343.45;;;11.90;56.10
58967;BME280;44744;51.894;5.080;2023-06-04T04:52:20;102338.68;;;11.90;56.11
58967;BME280;44744;51.894;5.080;2023-06-04T04:53:20;102337.64;;;11.89;56.60
58967;BME280;44744;51.894;5.080;2023-06-04T04:54:21;102337.23;;;11.86;56.26
58967;BME280;44744;51.894;5.080;2023-06-04T04:55:22;102337.65;;;11.84;56.18
58967;BME280;44744;51.894;5.080;2023-06-04T04:56:22;102335.65;;;11.86;56.50
58967;BME280;44744;51.894;5.080;2023-06-04T04:57:23;102337.58;;;11.86;56.49
58967;BME280;44744;51.894;5.080;2023-06-04T04:58:23;102340.72;;;11.87;56.59
58967;BME280;44744;51.894;5.080;2023-06-04T04:59:24;102339.14;;;11.87;56.57
58967;BME280;44744;51.894;5.080;2023-06-04T05:00:24;102341.90;;;11.89;56.40
58967;BME280;44744;51.894;5.080;2023-06-04T05:01:25;102337.23;;;11.91;56.89
58967;BME280;44744;51.894;5.080;2023-06-04T05:02:25;102336.06;;;11.89;56.80
58967;BME280;44744;51.894;5.080;2023-06-04T05:03:26;102335.93;;;11.87;56.70
58967;BME280;44744;51.894;5.080;2023-06-04T05:04:26;102337.46;;;11.89;57.32
58967;BME280;44744;51.894;5.080;2023-06-04T05:05:26;102339.48;;;11.87;57.28
58967;BME280;44744;51.894;5.080;2023-06-04T05:06:27;102336.48;;;11.87;57.28
58967;BME280;44744;51.894;5.080;2023-06-04T05:07:27;102338.27;;;11.86;57.46
58967;BME280;44744;51.894;5.080;2023-06-04T05:08:28;102338.84;;;11.86;57.46
58967;BME280;44744;51.894;5.080;2023-06-04T05:09:28;102338.42;;;11.87;57.94
58967;BME280;44744;51.894;5.080;2023-06-04T05:10:29;102335.30;;;11.85;57.87
58967;BME280;44744;51.894;5.080;2023-06-04T05:11:29;102336.89;;;11.86;57.86
58967;BME280;44744;51.894;5.080;2023-06-04T05:12:30;102337.41;;;11.86;58.11
58967;BME280;44744;51.894;5.080;2023-06-04T05:13:31;102336.20;;;11.85;57.76
58967;BME280;44744;51.894;5.080;2023-06-04T05:14:31;102336.66;;;11.87;57.81
58967;BME280;44744;51.894;5.080;2023-06-04T05:15:33;102336.56;;;11.90;57.91
58967;BME280;44744;51.894;5.080;2023-06-04T05:16:34;102335.20;;;11.93;57.93
58967;BME280;44744;51.894;5.080;2023-06-04T05:17:34;102334.59;;;11.96;57.75
58967;BME280;44744;51.894;5.080;2023-06-04T05:18:37;102339.25;;;12.00;57.99
58967;BME280;44744;51.894;5.080;2023-06-04T05:19:39;102337.23;;;12.02;58.29
58967;BME280;44744;51.894;5.080;2023-06-04T05:23:29;102345.80;;;11.95;58.39
58967;BME280;44744;51.894;5.080;2023-06-04T05:24:30;102343.48;;;11.95;58.46
58967;BME280;44744;51.894;5.080;2023-06-04T05:25:30;102346.26;;;11.97;58.27